Terminal Aerodrome Forecast
Issued by NWS Fort Wayne, IN

Home | Current Version | Previous Version | Graphics & Text | Print | Product List | Glossary On
Versions: 1 2 3 4 5 6 7 8 9 10 11 12 13
000
FTUS43 KIWX 251100
TAFFWA
TAF
KFWA 251140Z 2512/2612 09016G24KT P6SM -RA OVC050
     FM251600 08016G24KT 5SM -RA BR OVC025
     FM260200 06017G23KT P6SM SCT025 OVC040
     FM260600 03009KT P6SM SCT040 OVC100=

USA.gov is the U.S. government's official web portal to all federal, state and local government web resources and services.